(°C)
(°C)
-0°
-1°
-1°
-2°
ЗСЗ
ЗСЗ
ЗСЗ
ЗСЗ
ЗСЗ
СЗ
СЗ
(km/h)
21-36
21-35
20-33
18-29
17-26
17-25
17-24
(mm)
0
0
0
0
0
0
0
(%)
0
0
0
0
0
0
0

Издигане на слънцето

/ 24°
sun-icon
UV 1
06:51
19:28
Нарастваща полу-луна (161°)
19:39
03:57

METAR за 57.92°С 56.02°И (USPP)

Час Условия Температура/
Точка на оросяване
Вятър Видимост Времето Облаци Налягане Промяна Сурови
VFR 7°C / 0°C 330º variable 300º to 360º 12kt Gust 21kt. Wind Shear present on Runway 21. >10km - Broken Clouds 3300ft 1018 No Significant change. Runway 21: Clear and dry, 51-100% contamination with <1mm, friction coefficient 0.60. USPP 191030Z 33006G11MPS 300V360 9999 BKN033CB 07/M00 Q1018 WS R21 R21/090060 NOSIG RMK QFE753
MVFR 7°C / 1°C 320º variable 290º to 360º 12kt >10km - Broken Clouds 2500ft 1018 No Significant change. Runway 21: Clear and dry, 51-100% contamination with <1mm, friction coefficient 0.60. USPP 191000Z 32006MPS 290V360 9999 BKN025CB 07/01 Q1018 R21/090060 NOSIG RMK QFE753
VFR 7°C / 1°C 330º variable 290º to 010º 10kt >10km - Broken Clouds 3300ft 1017 No Significant change. Runway 21: Clear and dry, 51-100% contamination with <1mm, friction coefficient 0.60. USPP 190930Z 33005MPS 290V010 9999 BKN033CB 07/01 Q1017 R21/090060 NOSIG RMK QFE752
MVFR 7°C / 0°C 330º 12kt >10km - Broken Clouds 2500ft 1017 No Significant change. Runway 21: Wet or puddles, 51-100% contamination with 1mm, friction coefficient 0.50. USPP 190900Z 33006MPS 9999 BKN025CB 07/00 Q1017 R21/290150 NOSIG RMK QFE752
MVFR 6°C / 0°C 330º variable 300º to 360º 12kt >10km Light Showers Rain 3.00mm precipitation Vertical Visibility of 0ft. 1017 No Significant change. Runway 21: Wet or puddles, 51-100% contamination with 1mm, friction coefficient 0.50. USPP 190830Z 33006MPS 300V360 9999 -SHRA BKN027CB 06/00 Q1017 R21/290150 NOSIG RMK QFE752
VFR 6°C / 0°C 330º variable 290º to 010º 10kt >10km - Broken Clouds 3200ft 1017 No Significant change. Runway 21: Wet or puddles, 51-100% contamination with 1mm, friction coefficient 0.50. USPP 190800Z 33005MPS 290V010 9999 BKN032CB 06/M00 Q1017 R21/290150 NOSIG RMK QFE752
MVFR 6°C / 0°C 330º variable 290º to 010º 14kt >10km - Broken Clouds 2600ft 1017 No Significant change. Runway 21: Wet or puddles, 51-100% contamination with 1mm, friction coefficient 0.50. USPP 190730Z 33007MPS 290V010 9999 BKN026CB 06/M00 Q1017 R21/290150 NOSIG RMK QFE752
MVFR 5°C / 0°C 330º variable 290º to 360º 12kt Gust 21kt >10km Light Showers Rain 3.00mm precipitation Vertical Visibility of 0ft. 1017 No Significant change. Runway 21: Wet or puddles, 51-100% contamination with 1mm, friction coefficient 0.50. USPP 190700Z 33006G11MPS 290V360 9999 -SHRA BKN016CB 05/00 Q1017 R21/290150 NOSIG RMK QFE752
MVFR 4°C / 1°C 310º 10kt >10km - Broken Clouds 2000ft 1016 Temporary: 32003G15MPS RMK QFE751 . Runway 21: Wet or puddles, 51-100% contamination with 1mm, friction coefficient 0.50. USPP 190630Z 31005MPS 9999 BKN020CB 04/01 Q1016 R21/290150 TEMPO 32003G15MPS RMK QFE751
MVFR 3°C / 1°C 320º 14kt >10km - Broken Clouds 2800ft 1016 Temporary: 32003G15MPS RMK QFE751 . Runway 21: Wet or puddles, 51-100% contamination with 1mm, friction coefficient 0.50. USPP 190600Z 32007MPS 9999 BKN028CB 03/01 Q1016 R21/290150 TEMPO 32003G15MPS RMK QFE751
MVFR 5°C / 1°C 310º variable 280º to 340º 10kt >10km - Broken Clouds 1800ft 1016 Temporary: 32003G15MPS RMK QFE751 . Runway 21: Wet or puddles, 51-100% contamination with 1mm, friction coefficient 0.50. USPP 190530Z 31005MPS 280V340 9999 BKN018CB 05/01 Q1016 R21/290150 TEMPO 32003G15MPS RMK QFE751
MVFR 4°C / 1°C 320º variable 280º to 360º 10kt >10km - Broken Clouds 2000ft 1016 Temporary: 32003G15MPS RMK QFE751 . Runway 21: Wet or puddles, 51-100% contamination with 1mm, friction coefficient 0.50. USPP 190500Z 32005MPS 280V360 9999 BKN020CB 04/01 Q1016 R21/290150 TEMPO 32003G15MPS RMK QFE751
MVFR 4°C / 2°C 310º variable 280º to 340º 12kt >10km - Broken Clouds 1600ft 1015 Temporary: 32003G15MPS RMK QFE751 . Runway 21: Wet or puddles, 51-100% contamination with 1mm, friction coefficient 0.50. USPP 190430Z 31006MPS 280V340 9999 BKN016CB 04/02 Q1015 R21/290150 TEMPO 32003G15MPS RMK QFE751
MVFR 4°C / 1°C 320º variable 290º to 350º 10kt >10km - Broken Clouds 1500ft 1015 Temporary: 32003G15MPS RMK QFE751 . Runway 21: Wet or puddles, 51-100% contamination with 1mm, friction coefficient 0.50. USPP 190400Z 32005MPS 290V350 9999 BKN015CB 04/01 Q1015 R21/290150 TEMPO 32003G15MPS RMK QFE751
MVFR 4°C / 1°C 310º 12kt >10km - Broken Clouds 1800ft 1015 No Significant change. Runway 21: Wet or puddles, 51-100% contamination with 1mm, friction coefficient 0.50. USPP 190330Z 31006MPS 9999 BKN018 04/01 Q1015 R21/290150 NOSIG RMK QFE750
VFR 4°C / 1°C 310º 12kt >10km - Overcast 3600ft 1015 No Significant change. Runway 21: Wet or puddles, 51-100% contamination with 1mm, friction coefficient 0.50. USPP 190300Z 31006MPS 9999 OVC036 04/01 Q1015 R21/290150 NOSIG RMK QFE750
MVFR 4°C / 1°C 310º variable 280º to 340º 8kt >10km - Overcast 2400ft 1015 No Significant change. Runway 21: Wet or puddles, 51-100% contamination with 1mm, friction coefficient 0.50. USPP 190230Z 31004MPS 280V340 9999 OVC024 04/01 Q1015 R21/290150 NOSIG RMK QFE750
MVFR 4°C / 1°C 310º 10kt >10km - Overcast 1900ft 1014 No Significant change. Runway 21: Wet or puddles, 51-100% contamination with 1mm, friction coefficient 0.50. USPP 190200Z 31005MPS 9999 OVC019 04/01 Q1014 R21/290150 NOSIG RMK QFE750
MVFR 4°C / 2°C 310º variable 280º to 340º 10kt >10km - Overcast 1600ft 1014 No Significant change. Runway 21: Wet or puddles, 51-100% contamination with 1mm, friction coefficient 0.50. USPP 190130Z 31005MPS 280V340 9999 OVC016 04/02 Q1014 R21/290150 NOSIG RMK QFE750
MVFR 4°C / 2°C 310º variable 280º to 340º 10kt >10km - Overcast 1500ft 1014 No Significant change. Runway 21: Wet or puddles, 51-100% contamination with 1mm, friction coefficient 0.50. USPP 190100Z 31005MPS 280V340 9999 OVC015 04/02 Q1014 R21/290150 NOSIG RMK QFE750
MVFR 4°C / 2°C 310º variable 280º to 350º 10kt >10km - Overcast 1400ft 1014 No Significant change. Runway 21: Wet or puddles, 51-100% contamination with 1mm, friction coefficient 0.50. USPP 190030Z 31005MPS 280V350 9999 OVC014 04/02 Q1014 R21/290150 NOSIG RMK QFE750
MVFR 4°C / 2°C 310º variable 280º to 340º 10kt >10km - Broken Clouds 1400ft 1014 No Significant change. Runway 21: Wet or puddles, 51-100% contamination with 1mm, friction coefficient 0.50. USPP 190000Z 31005MPS 280V340 9999 BKN014 04/02 Q1014 R21/290150 NOSIG RMK QFE750
MVFR 4°C / 2°C 300º variable 280º to 340º 12kt >10km - Broken Clouds 1600ft 1014 Temporary: Broken Clouds 600ft. RMK QFE750 . Runway 03: Wet or puddles, 51-100% contamination with 1mm, friction coefficient 0.50. USPP 182330Z 30006MPS 280V340 9999 BKN016 04/02 Q1014 R03/290150 TEMPO BKN006 RMK QFE750
MVFR 3°C / 2°C 300º 10kt >10km - Broken Clouds 1900ft 1013 Temporary: Broken Clouds 600ft. RMK QFE750 . Runway 03: Wet or puddles, 51-100% contamination with 1mm, friction coefficient 0.50. USPP 182300Z 30005MPS 9999 BKN019CB 03/02 Q1013 R03/290150 TEMPO BKN006 RMK QFE750

VFR

7°C / 0°C

[Още]
Вятър 330º variable 300º to 360º 12kt Gust 21kt. Wind Shear present on Runway 21.
Видимост >10km
Времето -
Облаци Broken Clouds 3300ft
Налягане 1018
Промяна No Significant change. Runway 21: Clear and dry, 51-100% contamination with <1mm, friction coefficient 0.60.
Сурови USPP 191030Z 33006G11MPS 300V360 9999 BKN033CB 07/M00 Q1018 WS R21 R21/090060 NOSIG RMK QFE753

MVFR

7°C / 1°C

[Още]
Вятър 320º variable 290º to 360º 12kt
Видимост >10km
Времето -
Облаци Broken Clouds 2500ft
Налягане 1018
Промяна No Significant change. Runway 21: Clear and dry, 51-100% contamination with <1mm, friction coefficient 0.60.
Сурови USPP 191000Z 32006MPS 290V360 9999 BKN025CB 07/01 Q1018 R21/090060 NOSIG RMK QFE753

VFR

7°C / 1°C

[Още]
Вятър 330º variable 290º to 010º 10kt
Видимост >10km
Времето -
Облаци Broken Clouds 3300ft
Налягане 1017
Промяна No Significant change. Runway 21: Clear and dry, 51-100% contamination with <1mm, friction coefficient 0.60.
Сурови USPP 190930Z 33005MPS 290V010 9999 BKN033CB 07/01 Q1017 R21/090060 NOSIG RMK QFE752

MVFR

7°C / 0°C

[Още]
Вятър 330º 12kt
Видимост >10km
Времето -
Облаци Broken Clouds 2500ft
Налягане 1017
Промяна No Significant change. Runway 21: Wet or puddles, 51-100% contamination with 1mm, friction coefficient 0.50.
Сурови USPP 190900Z 33006MPS 9999 BKN025CB 07/00 Q1017 R21/290150 NOSIG RMK QFE752

MVFR

6°C / 0°C

[Още]
Вятър 330º variable 300º to 360º 12kt
Видимост >10km
Времето Light Showers Rain 3.00mm precipitation
Облаци Vertical Visibility of 0ft.
Налягане 1017
Промяна No Significant change. Runway 21: Wet or puddles, 51-100% contamination with 1mm, friction coefficient 0.50.
Сурови USPP 190830Z 33006MPS 300V360 9999 -SHRA BKN027CB 06/00 Q1017 R21/290150 NOSIG RMK QFE752

VFR

6°C / 0°C

[Още]
Вятър 330º variable 290º to 010º 10kt
Видимост >10km
Времето -
Облаци Broken Clouds 3200ft
Налягане 1017
Промяна No Significant change. Runway 21: Wet or puddles, 51-100% contamination with 1mm, friction coefficient 0.50.
Сурови USPP 190800Z 33005MPS 290V010 9999 BKN032CB 06/M00 Q1017 R21/290150 NOSIG RMK QFE752

MVFR

6°C / 0°C

[Още]
Вятър 330º variable 290º to 010º 14kt
Видимост >10km
Времето -
Облаци Broken Clouds 2600ft
Налягане 1017
Промяна No Significant change. Runway 21: Wet or puddles, 51-100% contamination with 1mm, friction coefficient 0.50.
Сурови USPP 190730Z 33007MPS 290V010 9999 BKN026CB 06/M00 Q1017 R21/290150 NOSIG RMK QFE752

MVFR

5°C / 0°C

[Още]
Вятър 330º variable 290º to 360º 12kt Gust 21kt
Видимост >10km
Времето Light Showers Rain 3.00mm precipitation
Облаци Vertical Visibility of 0ft.
Налягане 1017
Промяна No Significant change. Runway 21: Wet or puddles, 51-100% contamination with 1mm, friction coefficient 0.50.
Сурови USPP 190700Z 33006G11MPS 290V360 9999 -SHRA BKN016CB 05/00 Q1017 R21/290150 NOSIG RMK QFE752

MVFR

4°C / 1°C

[Още]
Вятър 310º 10kt
Видимост >10km
Времето -
Облаци Broken Clouds 2000ft
Налягане 1016
Промяна Temporary: 32003G15MPS RMK QFE751 . Runway 21: Wet or puddles, 51-100% contamination with 1mm, friction coefficient 0.50.
Сурови USPP 190630Z 31005MPS 9999 BKN020CB 04/01 Q1016 R21/290150 TEMPO 32003G15MPS RMK QFE751

MVFR

3°C / 1°C

[Още]
Вятър 320º 14kt
Видимост >10km
Времето -
Облаци Broken Clouds 2800ft
Налягане 1016
Промяна Temporary: 32003G15MPS RMK QFE751 . Runway 21: Wet or puddles, 51-100% contamination with 1mm, friction coefficient 0.50.
Сурови USPP 190600Z 32007MPS 9999 BKN028CB 03/01 Q1016 R21/290150 TEMPO 32003G15MPS RMK QFE751

MVFR

5°C / 1°C

[Още]
Вятър 310º variable 280º to 340º 10kt
Видимост >10km
Времето -
Облаци Broken Clouds 1800ft
Налягане 1016
Промяна Temporary: 32003G15MPS RMK QFE751 . Runway 21: Wet or puddles, 51-100% contamination with 1mm, friction coefficient 0.50.
Сурови USPP 190530Z 31005MPS 280V340 9999 BKN018CB 05/01 Q1016 R21/290150 TEMPO 32003G15MPS RMK QFE751

MVFR

4°C / 1°C

[Още]
Вятър 320º variable 280º to 360º 10kt
Видимост >10km
Времето -
Облаци Broken Clouds 2000ft
Налягане 1016
Промяна Temporary: 32003G15MPS RMK QFE751 . Runway 21: Wet or puddles, 51-100% contamination with 1mm, friction coefficient 0.50.
Сурови USPP 190500Z 32005MPS 280V360 9999 BKN020CB 04/01 Q1016 R21/290150 TEMPO 32003G15MPS RMK QFE751

MVFR

4°C / 2°C

[Още]
Вятър 310º variable 280º to 340º 12kt
Видимост >10km
Времето -
Облаци Broken Clouds 1600ft
Налягане 1015
Промяна Temporary: 32003G15MPS RMK QFE751 . Runway 21: Wet or puddles, 51-100% contamination with 1mm, friction coefficient 0.50.
Сурови USPP 190430Z 31006MPS 280V340 9999 BKN016CB 04/02 Q1015 R21/290150 TEMPO 32003G15MPS RMK QFE751

MVFR

4°C / 1°C

[Още]
Вятър 320º variable 290º to 350º 10kt
Видимост >10km
Времето -
Облаци Broken Clouds 1500ft
Налягане 1015
Промяна Temporary: 32003G15MPS RMK QFE751 . Runway 21: Wet or puddles, 51-100% contamination with 1mm, friction coefficient 0.50.
Сурови USPP 190400Z 32005MPS 290V350 9999 BKN015CB 04/01 Q1015 R21/290150 TEMPO 32003G15MPS RMK QFE751

MVFR

4°C / 1°C

[Още]
Вятър 310º 12kt
Видимост >10km
Времето -
Облаци Broken Clouds 1800ft
Налягане 1015
Промяна No Significant change. Runway 21: Wet or puddles, 51-100% contamination with 1mm, friction coefficient 0.50.
Сурови USPP 190330Z 31006MPS 9999 BKN018 04/01 Q1015 R21/290150 NOSIG RMK QFE750

VFR

4°C / 1°C

[Още]
Вятър 310º 12kt
Видимост >10km
Времето -
Облаци Overcast 3600ft
Налягане 1015
Промяна No Significant change. Runway 21: Wet or puddles, 51-100% contamination with 1mm, friction coefficient 0.50.
Сурови USPP 190300Z 31006MPS 9999 OVC036 04/01 Q1015 R21/290150 NOSIG RMK QFE750

MVFR

4°C / 1°C

[Още]
Вятър 310º variable 280º to 340º 8kt
Видимост >10km
Времето -
Облаци Overcast 2400ft
Налягане 1015
Промяна No Significant change. Runway 21: Wet or puddles, 51-100% contamination with 1mm, friction coefficient 0.50.
Сурови USPP 190230Z 31004MPS 280V340 9999 OVC024 04/01 Q1015 R21/290150 NOSIG RMK QFE750

MVFR

4°C / 1°C

[Още]
Вятър 310º 10kt
Видимост >10km
Времето -
Облаци Overcast 1900ft
Налягане 1014
Промяна No Significant change. Runway 21: Wet or puddles, 51-100% contamination with 1mm, friction coefficient 0.50.
Сурови USPP 190200Z 31005MPS 9999 OVC019 04/01 Q1014 R21/290150 NOSIG RMK QFE750

MVFR

4°C / 2°C

[Още]
Вятър 310º variable 280º to 340º 10kt
Видимост >10km
Времето -
Облаци Overcast 1600ft
Налягане 1014
Промяна No Significant change. Runway 21: Wet or puddles, 51-100% contamination with 1mm, friction coefficient 0.50.
Сурови USPP 190130Z 31005MPS 280V340 9999 OVC016 04/02 Q1014 R21/290150 NOSIG RMK QFE750

MVFR

4°C / 2°C

[Още]
Вятър 310º variable 280º to 340º 10kt
Видимост >10km
Времето -
Облаци Overcast 1500ft
Налягане 1014
Промяна No Significant change. Runway 21: Wet or puddles, 51-100% contamination with 1mm, friction coefficient 0.50.
Сурови USPP 190100Z 31005MPS 280V340 9999 OVC015 04/02 Q1014 R21/290150 NOSIG RMK QFE750

MVFR

4°C / 2°C

[Още]
Вятър 310º variable 280º to 350º 10kt
Видимост >10km
Времето -
Облаци Overcast 1400ft
Налягане 1014
Промяна No Significant change. Runway 21: Wet or puddles, 51-100% contamination with 1mm, friction coefficient 0.50.
Сурови USPP 190030Z 31005MPS 280V350 9999 OVC014 04/02 Q1014 R21/290150 NOSIG RMK QFE750

MVFR

4°C / 2°C

[Още]
Вятър 310º variable 280º to 340º 10kt
Видимост >10km
Времето -
Облаци Broken Clouds 1400ft
Налягане 1014
Промяна No Significant change. Runway 21: Wet or puddles, 51-100% contamination with 1mm, friction coefficient 0.50.
Сурови USPP 190000Z 31005MPS 280V340 9999 BKN014 04/02 Q1014 R21/290150 NOSIG RMK QFE750

MVFR

4°C / 2°C

[Още]
Вятър 300º variable 280º to 340º 12kt
Видимост >10km
Времето -
Облаци Broken Clouds 1600ft
Налягане 1014
Промяна Temporary: Broken Clouds 600ft. RMK QFE750 . Runway 03: Wet or puddles, 51-100% contamination with 1mm, friction coefficient 0.50.
Сурови USPP 182330Z 30006MPS 280V340 9999 BKN016 04/02 Q1014 R03/290150 TEMPO BKN006 RMK QFE750

MVFR

3°C / 2°C

[Още]
Вятър 300º 10kt
Видимост >10km
Времето -
Облаци Broken Clouds 1900ft
Налягане 1013
Промяна Temporary: Broken Clouds 600ft. RMK QFE750 . Runway 03: Wet or puddles, 51-100% contamination with 1mm, friction coefficient 0.50.
Сурови USPP 182300Z 30005MPS 9999 BKN019CB 03/02 Q1013 R03/290150 TEMPO BKN006 RMK QFE750

TAF за 57.92°С 56.02°И (USPP)

From till


From till Wind 310º 6kt. Gust 27kt. Visibility 10km or more. Broken Clouds 1600ft.
Temporarly from till Wind 350º 6kt. Gust 29kt. Light Showers Rain . Broken Clouds 1600ft.

Сурови: TAF USPP 190756Z 1909/2009 31003G14MPS 9999 BKN016 TEMPO 1909/1912 35003G15MPS -SHRA BKN016CB

Актуални сателитни и дъждовни снимки за 57.92°С 56.02°И

Маркерът за локация е поставен върху 57.92°С 56.02°И. [Още]

Сателитното изображение в реално време съчетава видимата светлина през деня с инфрачервеното лъчение през нощта. През нощта изображението не е тъмно, тъй като инфрачервеното лъчение може да открива температурни разлики. За съжаление ниските облаци и мъглата са трудни за разграничаване от температурите на земята и затова могат да бъдат почти невидими през нощта. Сателитните изображения на Meteosat за Европа се актуализират в реално време на всеки 5 минути. Изображенията GOES-16/GOES-17 (Северна и Южна Америка) и Химавари (Азия) се актуализират на всеки 10 минути.

Всички права запазени 2021 EUMETSAT / meteoblue. / Всички права запазени 2021 meteoblue

Радар и валежи в момента за 57.92°С 56.02°И

Капчица
Лек
Умерен
Тежък
Много тежък
Аве

Маркерът за локация обозначава 57.92°С 56.02°И. Анимацията показва Радара за валежи за последния час, както и прогноза за 1h. Дъждът или лекият сняг може да са невидими за радара. Интензивността на валежите е обозначена с цветни кодове, вариращи от светлосиньо до оранжево.